createdAt,value
2019-04-05T00:01:19.488Z,12.13
2019-04-05T00:04:32.394Z,11.20
2019-04-05T00:07:36.407Z,12.70
2019-04-05T00:10:28.564Z,12.00
2019-04-05T00:13:25.455Z,11.57
2019-04-05T00:16:13.821Z,13.43
2019-04-05T00:23:17.824Z,11.30
2019-04-05T00:26:37.364Z,12.40
2019-04-05T00:29:12.022Z,11.53
2019-04-05T00:32:22.821Z,13.27
2019-04-05T00:35:30.952Z,11.70
2019-04-05T00:38:42.972Z,13.93
2019-04-05T00:41:42.131Z,11.93
2019-04-05T00:44:34.122Z,10.60
2019-04-05T00:47:23.433Z,12.13
2019-04-05T00:50:37.994Z,12.60
2019-04-05T00:53:33.308Z,12.70
2019-04-05T00:56:12.222Z,12.87
2019-04-05T00:59:07.545Z,12.53
2019-04-05T01:02:09.277Z,13.17
2019-04-05T01:05:05.475Z,14.80
2019-04-05T01:08:02.829Z,14.83
2019-04-05T01:10:59.645Z,14.38
2019-04-05T01:13:54.018Z,14.30
2019-04-05T01:17:07.314Z,13.20
2019-04-05T01:20:34.229Z,14.03
2019-04-05T01:23:30.713Z,13.80
2019-04-05T01:26:20.383Z,12.03
2019-04-05T01:32:29.264Z,12.50
2019-04-05T01:35:56.983Z,12.63
2019-04-05T01:38:56.310Z,13.57
2019-04-05T01:42:00.389Z,14.63
2019-04-05T01:44:56.926Z,13.15
2019-04-05T01:48:05.243Z,13.80
2019-04-05T01:50:53.860Z,14.10
2019-04-05T01:53:52.052Z,12.90
2019-04-05T01:56:49.753Z,13.37
2019-04-05T01:59:49.489Z,13.13
2019-04-05T02:04:01.593Z,14.73
2019-04-05T02:06:46.605Z,15.00
2019-04-05T02:09:51.220Z,14.83
2019-04-05T02:12:38.721Z,16.47
2019-04-05T02:15:46.643Z,14.90
2019-04-05T02:18:38.493Z,17.00
2019-04-05T02:21:34.557Z,17.52
2019-04-05T02:24:17.071Z,16.23
2019-04-05T02:27:03.282Z,15.47
2019-04-05T02:30:14.886Z,15.83
2019-04-05T02:33:10.253Z,14.93
2019-04-05T02:36:10.544Z,17.27
2019-04-05T02:39:03.791Z,16.30
2019-04-05T02:42:14.004Z,15.57
2019-04-05T02:45:08.928Z,15.70
2019-04-05T02:48:25.062Z,16.60
2019-04-05T02:51:35.766Z,16.27
2019-04-05T02:54:39.007Z,16.07
2019-04-05T02:57:31.548Z,15.03
2019-04-05T03:00:17.429Z,17.03
2019-04-05T03:06:11.876Z,16.67
2019-04-05T03:09:26.286Z,16.90
2019-04-05T03:12:36.061Z,16.80
2019-04-05T03:16:04.167Z,15.87
2019-04-05T03:19:04.639Z,16.83
2019-04-05T03:25:07.512Z,15.80
2019-04-05T03:27:50.932Z,16.43
2019-04-05T03:31:07.039Z,16.97
2019-04-05T03:36:08.379Z,17.40
2019-04-05T03:37:18.492Z,16.03
2019-04-05T03:40:30.631Z,16.67
2019-04-05T03:43:34.496Z,16.13
2019-04-05T03:46:56.767Z,15.90
2019-04-05T03:49:42.622Z,16.77
2019-04-05T03:52:25.996Z,16.00
2019-04-05T03:55:27.692Z,16.03
2019-04-05T03:58:37.308Z,15.00
2019-04-05T04:05:42.402Z,17.03
2019-04-05T04:07:45.622Z,17.37
2019-04-05T04:10:29.526Z,16.13
2019-04-05T04:13:16.432Z,16.30
2019-04-05T04:16:16.846Z,16.73
2019-04-05T04:19:06.419Z,16.20
2019-04-05T04:26:07.283Z,16.70
2019-04-05T04:29:07.477Z,16.53
2019-04-05T04:32:51.869Z,15.80
2019-04-05T04:35:47.073Z,14.57
2019-04-05T04:46:10.415Z,15.00
2019-04-05T04:53:32.479Z,14.90
2019-04-05T05:04:38.882Z,14.97
2019-04-05T05:08:05.249Z,14.50
2019-04-05T05:14:45.073Z,17.10
2019-04-05T05:21:43.629Z,15.10
2019-04-05T05:32:38.986Z,19.27
2019-04-05T05:36:21.328Z,18.20
2019-04-05T05:39:08.431Z,18.80
2019-04-05T05:42:23.020Z,19.03
2019-04-05T05:45:25.064Z,18.20
2019-04-05T05:48:36.405Z,17.67
2019-04-05T05:51:50.161Z,20.80
2019-04-05T05:55:06.084Z,17.53
2019-04-05T05:58:46.535Z,18.07
2019-04-05T06:02:19.819Z,18.30
2019-04-05T06:05:48.508Z,19.60
2019-04-05T06:08:39.685Z,19.00
2019-04-05T06:11:36.943Z,17.73
2019-04-05T06:14:35.007Z,18.50
2019-04-05T06:17:49.096Z,20.00
2019-04-05T06:20:30.433Z,18.93
2019-04-05T06:27:16.275Z,20.23
2019-04-05T06:30:21.304Z,17.00
2019-04-05T06:33:14.457Z,18.57
2019-04-05T06:36:17.603Z,20.10
2019-04-05T06:42:49.465Z,17.87
2019-04-05T06:46:07.436Z,18.60
2019-04-05T06:50:00.224Z,18.43
2019-04-05T06:52:22.026Z,19.13
2019-04-05T06:58:53.297Z,19.23
2019-04-05T07:02:26.431Z,18.27
2019-04-05T07:09:50.869Z,14.40
2019-04-05T07:13:05.102Z,15.60
2019-04-05T07:14:44.249Z,16.47
2019-04-05T07:16:32.510Z,14.73
2019-04-05T07:23:50.892Z,14.73
2019-04-05T07:26:45.573Z,13.00
2019-04-05T07:29:57.154Z,13.27
2019-04-05T07:32:43.965Z,12.73
2019-04-05T07:36:20.081Z,12.17
2019-04-05T07:39:45.528Z,12.13
2019-04-05T07:46:53.785Z,12.80
2019-04-05T08:01:30.938Z,15.13
2019-04-05T08:07:56.567Z,14.90
2019-04-05T08:08:42.496Z,14.40
2019-04-05T08:12:15.254Z,17.90
2019-04-05T08:15:21.728Z,15.37
2019-04-05T08:19:08.563Z,16.47
2019-04-05T08:40:33.262Z,19.47
2019-04-05T08:44:17.646Z,19.63
2019-04-05T08:55:27.740Z,19.83
2019-04-05T08:58:44.278Z,23.50
2019-04-05T09:06:09.007Z,20.40
2019-04-05T09:09:39.661Z,21.30
2019-04-05T09:12:46.222Z,20.30
2019-04-05T09:16:37.374Z,18.30
2019-04-05T09:20:17.265Z,19.93
2019-04-05T09:23:47.297Z,16.10
2019-04-05T09:26:56.044Z,16.47
2019-04-05T09:29:58.694Z,18.70
2019-04-05T09:33:30.617Z,17.30
2019-04-05T09:37:21.011Z,17.63
2019-04-05T09:40:26.375Z,19.13
2019-04-05T09:43:43.113Z,19.40
2019-04-05T09:46:45.595Z,19.10
2019-04-05T09:50:07.933Z,20.80
2019-04-05T09:53:15.528Z,25.87
2019-04-05T09:59:43.959Z,15.37
2019-04-05T10:06:16.626Z,16.12
2019-04-05T10:09:36.393Z,20.90
2019-04-05T10:13:09.937Z,22.30
2019-04-05T10:20:02.629Z,22.77
2019-04-05T10:22:58.048Z,16.93
2019-04-05T10:26:02.993Z,17.93
2019-04-05T10:29:14.737Z,15.60
2019-04-05T10:32:51.431Z,14.83
2019-04-05T10:36:08.926Z,12.07
2019-04-05T10:40:04.390Z,14.50
2019-04-05T10:43:24.089Z,14.80
2019-04-05T10:46:21.634Z,14.30
2019-04-05T10:50:02.346Z,14.63
2019-04-05T10:57:02.351Z,15.83
2019-04-05T11:04:25.667Z,15.63
2019-04-05T11:12:04.452Z,16.47
2019-04-05T11:15:51.467Z,14.57
2019-04-05T11:24:53.861Z,13.87
2019-04-05T11:28:12.055Z,14.33
2019-04-05T11:31:13.029Z,13.07
2019-04-05T11:34:58.767Z,12.60
2019-04-05T11:41:52.306Z,15.30
2019-04-05T11:45:05.374Z,13.67
2019-04-05T11:48:15.735Z,12.80
2019-04-05T11:55:11.115Z,13.83
2019-04-05T11:58:34.580Z,12.67
2019-04-05T12:02:13.011Z,13.97
2019-04-05T12:05:30.184Z,14.27
2019-04-05T12:12:07.671Z,10.90
2019-04-05T12:15:22.595Z,16.13
2019-04-05T12:17:59.629Z,15.23
2019-04-05T12:21:34.862Z,17.70
2019-04-05T12:25:17.566Z,14.73
2019-04-05T12:45:32.930Z,15.40
2019-04-05T12:49:15.280Z,16.90
2019-04-05T13:03:46.075Z,16.53
2019-04-05T13:11:48.105Z,16.33
2019-04-05T13:26:36.796Z,18.13
2019-04-05T13:29:47.337Z,20.70
2019-04-05T13:33:21.632Z,18.97
2019-04-05T14:00:18.337Z,18.20
2019-04-05T14:30:07.864Z,21.10
2019-04-05T16:46:47.184Z,27.10
2019-04-05T19:06:48.806Z,29.60
2019-04-05T20:23:14.816Z,36.43
2019-04-05T20:30:00.071Z,33.67
2019-04-05T20:44:56.654Z,34.00
2019-04-05T20:48:26.134Z,32.27
2019-04-05T20:51:49.853Z,36.07
2019-04-05T21:02:26.986Z,35.25
2019-04-05T21:06:18.647Z,32.90
2019-04-05T21:25:12.712Z,32.80
2019-04-05T21:28:48.817Z,31.77
2019-04-05T21:51:25.634Z,33.37
2019-04-05T22:13:51.663Z,35.93
2019-04-05T22:42:50.297Z,38.53
2019-04-05T22:46:37.673Z,36.80
2019-04-05T22:53:36.747Z,35.70
2019-04-05T22:56:33.305Z,39.30
2019-04-05T22:59:26.585Z,38.27
2019-04-05T23:06:41.289Z,36.93
2019-04-05T23:13:29.694Z,39.97
2019-04-05T23:17:23.109Z,39.87
2019-04-05T23:24:02.470Z,40.77
2019-04-05T23:27:18.778Z,43.40
2019-04-05T23:30:28.278Z,44.57
2019-04-05T23:41:11.054Z,42.90
2019-04-05T23:44:07.886Z,41.87
2019-04-05T23:47:17.290Z,44.80
2019-04-05T23:50:05.092Z,41.10
2019-04-05T23:52:56.019Z,43.50
